Time;durP1;ratioP1;P1;durP2;ratioP2;P2;SDS_P1;SDS_P2;PMS_P1;PMS_P2;Temp;Humidity;BMP_temperature;BMP_pressure;BME280_temperature;BME280_humidity;BME280_pressure;Samples;Min_cycle;Max_cycle;Signal;HPM_P1;HPM_P2
2023/05/28 00:00:10;;;;;;;12.73;4.07;;;;;;;15.31;96.11;96393.63;6127840;23;20459;-85
2023/05/28 00:02:40;;;;;;;12.40;4.73;;;;;;;15.16;98.47;96397.31;6128781;23;20026;-86
2023/05/28 00:05:06;;;;;;;12.93;4.00;;;;;;;15.18;98.93;96396.09;6128721;23;20561;-86
2023/05/28 00:07:32;;;;;;;10.10;4.27;;;;;;;15.16;100.00;96392.84;6128397;23;20001;-84
2023/05/28 00:09:58;;;;;;;9.07;3.90;;;;;;;14.98;100.00;96392.38;6128563;23;20390;-86
2023/05/28 00:12:23;;;;;;;9.87;4.37;;;;;;;14.90;100.00;96395.13;6128788;23;20088;-86
2023/05/28 00:14:50;;;;;;;12.00;4.17;;;;;;;14.96;100.00;96394.41;6129098;23;20758;-85
2023/05/28 00:17:16;;;;;;;8.50;4.07;;;;;;;14.87;100.00;96385.69;6128389;23;20009;-86
2023/05/28 00:19:43;;;;;;;8.97;3.50;;;;;;;14.87;100.00;96388.34;6128550;23;20056;-86
2023/05/28 00:22:09;;;;;;;9.90;4.10;;;;;;;14.93;100.00;96381.50;6103713;23;20001;-85
2023/05/28 00:24:35;;;;;;;9.67;4.10;;;;;;;14.89;100.00;96383.72;6104333;23;20060;-86
2023/05/28 00:27:02;;;;;;;10.40;4.10;;;;;;;14.95;100.00;96377.66;6128654;23;20012;-86
2023/05/28 00:29:29;;;;;;;12.27;4.73;;;;;;;14.90;100.00;96376.59;6127456;23;20116;-85
2023/05/28 00:31:55;;;;;;;8.93;3.77;;;;;;;14.95;100.00;96371.53;6104316;23;20485;-85
2023/05/28 00:34:24;;;;;;;11.53;4.87;;;;;;;14.69;100.00;96372.84;6128551;23;20002;-85
2023/05/28 00:36:51;;;;;;;10.00;3.77;;;;;;;14.74;100.00;96366.97;6121421;23;20731;-86
2023/05/28 00:39:20;;;;;;;11.97;4.37;;;;;;;14.57;100.00;96353.91;6122499;23;20073;-85
2023/05/28 00:41:46;;;;;;;8.87;3.53;;;;;;;14.63;100.00;96360.31;6123328;23;20097;-86
2023/05/28 00:44:12;;;;;;;10.17;4.27;;;;;;;14.50;100.00;96360.09;6122701;23;20053;-85
2023/05/28 00:46:44;;;;;;;9.33;4.43;;;;;;;14.28;100.00;96352.00;6098180;23;20009;-85
2023/05/28 00:49:11;;;;;;;9.90;4.40;;;;;;;14.36;100.00;96362.53;6122789;23;20044;-85
2023/05/28 00:51:38;;;;;;;12.33;4.43;;;;;;;14.37;100.00;96364.16;6121940;23;20009;-84
2023/05/28 00:54:04;;;;;;;10.17;4.93;;;;;;;14.35;100.00;96360.91;6146711;23;20017;-86
2023/05/28 00:56:31;;;;;;;8.30;3.97;;;;;;;14.32;100.00;96358.59;6147642;23;20041;-85
2023/05/28 00:59:06;;;;;;;11.50;3.83;;;;;;;14.18;100.00;96359.38;6122474;23;20009;-84
2023/05/28 01:01:32;;;;;;;10.80;5.07;;;;;;;14.11;100.00;96356.63;6147321;23;20002;-85
2023/05/28 01:03:58;;;;;;;8.20;4.10;;;;;;;14.09;100.00;96357.81;6123553;23;20600;-85
2023/05/28 01:06:24;;;;;;;11.60;5.70;;;;;;;14.08;100.00;96351.72;6128731;23;20001;-85
2023/05/28 01:08:51;;;;;;;8.90;3.93;;;;;;;13.90;100.00;96359.13;6128193;23;20494;-85
2023/05/28 01:11:18;;;;;;;9.33;4.33;;;;;;;13.97;100.00;96361.88;6123255;23;20060;-85
2023/05/28 01:13:46;;;;;;;8.97;4.23;;;;;;;13.88;100.00;96359.31;6124105;23;20091;-85
2023/05/28 01:16:12;;;;;;;10.40;4.03;;;;;;;14.05;100.00;96353.84;6099486;23;20008;-85
2023/05/28 01:18:44;;;;;;;7.63;3.37;;;;;;;13.75;100.00;96356.41;6123730;23;20041;-85
2023/05/28 01:21:17;;;;;;;9.17;4.23;;;;;;;13.79;100.00;96354.25;6123566;23;20332;-86
2023/05/28 01:23:47;;;;;;;10.10;4.43;;;;;;;13.85;100.00;96350.91;6125558;23;20021;-84
2023/05/28 01:26:16;;;;;;;11.30;4.23;;;;;;;13.93;100.00;96355.28;6100847;23;20006;-85
2023/05/28 01:28:48;;;;;;;9.87;3.87;;;;;;;13.90;100.00;96356.47;6100206;23;20339;-85
2023/05/28 01:31:16;;;;;;;8.93;3.97;;;;;;;13.89;100.00;96355.66;6124700;23;20070;-85
2023/05/28 01:33:43;;;;;;;11.23;4.27;;;;;;;13.77;100.00;96351.75;6123949;23;20005;-85
2023/05/28 01:36:30;;;;;;;9.97;4.83;;;;;;;13.76;100.00;96352.78;6124664;23;20033;-84
2023/05/28 01:39:00;;;;;;;12.67;3.90;;;;;;;13.63;100.00;96352.53;6125978;23;20009;-85
2023/05/28 01:41:28;;;;;;;10.27;4.47;;;;;;;13.64;100.00;96352.34;6131153;23;20002;-85
2023/05/28 01:43:55;;;;;;;10.97;4.50;;;;;;;13.42;100.00;96348.69;6107113;23;20036;-85
2023/05/28 01:46:23;;;;;;;12.23;4.60;;;;;;;13.60;100.00;96344.94;6114226;23;19993;-85
2023/05/28 01:48:49;;;;;;;10.47;4.77;;;;;;;13.59;100.00;96345.97;6141403;23;20013;-85
2023/05/28 01:51:20;;;;;;;10.40;4.27;;;;;;;13.45;100.00;96344.88;6119304;23;20471;-86
2023/05/28 01:53:46;;;;;;;11.53;4.53;;;;;;;13.34;100.00;96351.38;6106735;23;20009;-86
2023/05/28 01:56:11;;;;;;;10.70;4.50;;;;;;;13.52;100.00;96347.66;6130587;23;20389;-86
2023/05/28 01:58:37;;;;;;;9.87;4.10;;;;;;;13.55;100.00;96350.78;6130588;23;20084;-85
2023/05/28 02:01:27;;;;;;;10.30;4.70;;;;;;;13.46;100.00;96351.00;6103288;23;20622;-86
2023/05/28 02:03:53;;;;;;;10.20;4.13;;;;;;;13.42;100.00;96353.16;6130309;23;20093;-85
2023/05/28 02:06:20;;;;;;;9.53;4.27;;;;;;;13.41;100.00;96357.63;6130360;23;20450;-85
2023/05/28 02:08:46;;;;;;;11.73;4.07;;;;;;;13.28;100.00;96351.22;6130364;23;20005;-86
2023/05/28 02:11:11;;;;;;;10.50;4.63;;;;;;;13.26;100.00;96351.41;6097946;23;20010;-85
2023/05/28 02:13:39;;;;;;;13.73;5.60;;;;;;;12.96;100.00;96355.66;6124421;23;20016;-84
2023/05/28 02:16:06;;;;;;;9.40;4.90;;;;;;;13.07;100.00;96349.97;6123736;23;20009;-85
2023/05/28 02:18:32;;;;;;;12.93;6.10;;;;;;;13.07;100.00;96349.16;6122438;23;20308;-85
2023/05/28 02:20:59;;;;;;;9.87;4.50;;;;;;;12.96;100.00;96345.91;6123653;23;20013;-85
2023/05/28 02:23:25;;;;;;;12.10;4.87;;;;;;;12.98;100.00;96348.41;6122538;23;20002;-85
2023/05/28 02:25:53;;;;;;;10.63;4.90;;;;;;;12.78;100.00;96345.34;6123669;23;20005;-85
2023/05/28 02:28:19;;;;;;;10.40;4.77;;;;;;;12.68;100.00;96345.53;6123134;23;20001;-85
2023/05/28 02:30:45;;;;;;;9.27;4.27;;;;;;;12.67;100.00;96349.13;6123489;23;20003;-86
2023/05/28 02:33:11;;;;;;;9.87;4.40;;;;;;;12.84;100.00;96335.88;6123540;23;20041;-86
2023/05/28 02:35:37;;;;;;;9.47;3.93;;;;;;;12.62;100.00;96348.84;6122307;23;20371;-86
2023/05/28 02:38:03;;;;;;;12.30;4.30;;;;;;;12.61;100.00;96343.72;6120843;23;20005;-84
2023/05/28 02:40:37;;;;;;;11.60;5.00;;;;;;;12.31;100.00;96337.34;6147692;23;20041;-85
2023/05/28 02:43:03;;;;;;;11.27;4.53;;;;;;;12.44;100.00;96349.06;6123838;23;20033;-86
2023/05/28 02:45:29;;;;;;;11.67;4.73;;;;;;;12.34;100.00;96340.50;6148204;23;20011;-85
2023/05/28 02:47:54;;;;;;;11.57;5.27;;;;;;;12.46;100.00;96336.50;6122809;23;20006;-85
2023/05/28 02:50:21;;;;;;;15.20;9.37;;;;;;;12.34;100.00;96337.00;6120593;23;20001;-85
2023/05/28 02:53:00;;;;;;;10.70;6.50;;;;;;;12.25;100.00;96333.59;6124264;23;20008;-85
2023/05/28 02:55:26;;;;;;;12.97;5.60;;;;;;;12.53;100.00;96330.56;6124281;23;20010;-86
2023/05/28 02:57:52;;;;;;;9.43;4.73;;;;;;;12.43;100.00;96336.00;6124345;23;20001;-84
2023/05/28 03:00:19;;;;;;;8.93;4.53;;;;;;;12.33;100.00;96330.91;6123042;23;20501;-85
2023/05/28 03:02:45;;;;;;;10.13;4.50;;;;;;;12.21;100.00;96332.28;6121536;23;20032;-86
2023/05/28 03:05:12;;;;;;;10.33;5.03;;;;;;;12.19;100.00;96335.06;6126375;23;20019;-85
2023/05/28 03:07:38;;;;;;;9.80;5.10;;;;;;;12.26;100.00;96332.59;6129526;23;20025;-86
2023/05/28 03:10:05;;;;;;;11.17;4.77;;;;;;;12.40;100.00;96341.63;6126662;23;20005;-85
2023/05/28 03:12:32;;;;;;;10.43;4.67;;;;;;;12.28;100.00;96338.53;6122033;23;20430;-85
2023/05/28 03:14:57;;;;;;;8.93;4.53;;;;;;;12.32;100.00;96336.38;6121527;23;20015;-85
2023/05/28 03:17:23;;;;;;;11.23;5.07;;;;;;;12.21;100.00;96341.00;6121611;23;20016;-85
2023/05/28 03:19:49;;;;;;;11.43;4.80;;;;;;;12.32;100.00;96345.09;6123772;23;20009;-85
2023/05/28 03:22:17;;;;;;;14.30;5.10;;;;;;;11.98;100.00;96353.22;6124483;23;20075;-86
2023/05/28 03:24:43;;;;;;;12.03;4.30;;;;;;;12.03;100.00;96340.34;6124314;23;20013;-85
2023/05/28 03:27:12;;;;;;;11.10;5.07;;;;;;;12.19;100.00;96344.78;6122891;23;20412;-86
2023/05/28 03:29:38;;;;;;;10.37;5.23;;;;;;;12.19;100.00;96339.50;6122858;23;20002;-84
2023/05/28 03:32:12;;;;;;;11.83;6.03;;;;;;;12.18;100.00;96338.69;6121361;23;20007;-86
2023/05/28 03:34:38;;;;;;;10.23;4.87;;;;;;;12.20;100.00;96333.25;6119450;23;20021;-85
2023/05/28 03:37:05;;;;;;;14.53;5.40;;;;;;;12.41;100.00;96338.00;6144526;23;20323;-85
2023/05/28 03:39:31;;;;;;;11.67;6.13;;;;;;;12.47;100.00;96332.88;6120377;23;20525;-85
2023/05/28 03:41:57;;;;;;;10.03;4.60;;;;;;;12.47;100.00;96332.03;6123829;23;20016;-84
2023/05/28 03:44:25;;;;;;;11.67;5.77;;;;;;;12.39;100.00;96337.34;6122714;23;20038;-85
2023/05/28 03:46:52;;;;;;;15.17;4.67;;;;;;;12.38;100.00;96338.34;6121648;23;20342;-85
2023/05/28 03:49:24;;;;;;;11.10;5.57;;;;;;;12.26;100.00;96336.03;6097401;23;20005;-84
2023/05/28 03:51:50;;;;;;;15.00;7.93;;;;;;;12.35;100.00;96334.22;6122674;23;20005;-84
2023/05/28 03:54:16;;;;;;;12.67;5.03;;;;;;;12.19;100.00;96331.59;6109986;23;20452;-84
2023/05/28 03:56:44;;;;;;;8.70;4.60;;;;;;;12.13;100.00;96327.00;6121009;23;20033;-84
2023/05/28 03:59:10;;;;;;;12.97;5.23;;;;;;;12.25;100.00;96323.03;6122098;23;20368;-84
2023/05/28 04:01:36;;;;;;;12.13;5.23;;;;;;;12.45;100.00;96329.59;6149916;23;20017;-84
2023/05/28 04:04:04;;;;;;;11.40;5.20;;;;;;;12.59;100.00;96328.06;6129579;23;20006;-84
2023/05/28 04:06:32;;;;;;;9.67;4.87;;;;;;;12.66;100.00;96330.84;6128978;23;20013;-84
2023/05/28 04:08:58;;;;;;;11.70;4.77;;;;;;;12.43;100.00;96334.19;6127861;23;20123;-84
2023/05/28 04:11:24;;;;;;;12.60;5.10;;;;;;;12.46;100.00;96333.84;6122554;23;20442;-85
2023/05/28 04:13:51;;;;;;;23.80;6.07;;;;;;;12.44;100.00;96338.50;6123575;23;20013;-84
2023/05/28 04:16:19;;;;;;;10.27;5.07;;;;;;;12.65;100.00;96337.94;6125531;23;20010;-84
2023/05/28 04:18:45;;;;;;;12.50;4.80;;;;;;;12.61;100.00;96334.00;6125969;23;20375;-85
2023/05/28 04:21:12;;;;;;;10.93;5.77;;;;;;;12.86;100.00;96334.72;6125814;23;20016;-84
2023/05/28 04:23:38;;;;;;;12.70;6.40;;;;;;;12.82;100.00;96337.91;6125436;23;20448;-84
2023/05/28 04:26:06;;;;;;;9.67;4.90;;;;;;;13.00;100.00;96329.72;6124841;23;20082;-84
2023/05/28 04:28:33;;;;;;;11.43;4.93;;;;;;;13.23;100.00;96341.16;6124537;23;20012;-84
2023/05/28 04:31:02;;;;;;;10.83;5.00;;;;;;;13.42;100.00;96334.66;6123990;23;20028;-84
2023/05/28 04:33:28;;;;;;;13.73;6.50;;;;;;;13.57;100.00;96334.72;6123364;23;20005;-84
2023/05/28 04:35:58;;;;;;;11.07;4.57;;;;;;;13.62;100.00;96332.41;6123015;23;20016;-83
2023/05/28 04:38:33;;;;;;;12.77;5.43;;;;;;;13.57;100.00;96334.72;6123270;23;20001;-84
2023/05/28 04:41:04;;;;;;;14.90;7.33;;;;;;;13.36;100.00;96341.47;6130533;23;20036;-85
2023/05/28 04:43:31;;;;;;;12.97;5.57;;;;;;;13.42;100.00;96330.19;6130971;23;20013;-85
2023/05/28 04:46:01;;;;;;;9.80;4.67;;;;;;;13.51;100.00;96338.88;6156747;23;20696;-84
2023/05/28 04:48:27;;;;;;;9.83;5.07;;;;;;;13.44;100.00;96346.69;6130414;23;20558;-85
2023/05/28 04:50:53;;;;;;;10.57;4.90;;;;;;;13.70;100.00;96332.31;6130817;23;20009;-84
2023/05/28 04:53:20;;;;;;;11.60;5.17;;;;;;;13.75;100.00;96337.91;6131651;23;20438;-84
2023/05/28 04:55:46;;;;;;;12.27;5.33;;;;;;;13.78;100.00;96340.22;6130630;23;20009;-84
2023/05/28 04:58:11;;;;;;;10.83;5.47;;;;;;;14.07;100.00;96341.28;6130659;23;20033;-84
2023/05/28 05:00:37;;;;;;;7.77;4.67;;;;;;;14.29;100.00;96340.44;6131334;23;20018;-84
2023/05/28 05:03:03;;;;;;;11.10;4.77;;;;;;;14.09;100.00;96339.31;6130667;23;20382;-84
2023/05/28 05:05:30;;;;;;;12.07;5.17;;;;;;;14.42;100.00;96339.84;6131204;23;20033;-84
2023/05/28 05:07:56;;;;;;;10.80;5.33;;;;;;;14.85;100.00;96346.19;6131118;23;20108;-84
2023/05/28 05:10:22;;;;;;;15.80;6.90;;;;;;;14.66;100.00;96344.06;6123053;23;20543;-84
2023/05/28 05:12:49;;;;;;;9.00;4.23;;;;;;;14.52;100.00;96344.88;6120196;23;20056;-84
2023/05/28 05:15:14;;;;;;;11.00;5.17;;;;;;;14.32;100.00;96340.09;6120247;23;20009;-84
2023/05/28 05:17:42;;;;;;;10.90;6.97;;;;;;;14.70;100.00;96337.41;6119223;23;20001;-84
2023/05/28 05:20:08;;;;;;;12.80;5.07;;;;;;;14.64;100.00;96339.97;6120704;23;20010;-84
2023/05/28 05:22:35;;;;;;;8.93;4.17;;;;;;;14.96;100.00;96338.78;6120680;23;20005;-84
2023/05/28 05:25:01;;;;;;;9.43;4.63;;;;;;;15.06;100.00;96336.66;6118967;23;20076;-85
2023/05/28 05:27:28;;;;;;;11.27;4.97;;;;;;;15.54;100.00;96342.31;6116855;23;20044;-85
2023/05/28 05:29:54;;;;;;;11.97;5.33;;;;;;;15.65;100.00;96344.47;6116761;23;20105;-85
2023/05/28 05:32:20;;;;;;;9.37;5.10;;;;;;;15.60;100.00;96332.81;6116159;23;20005;-85
2023/05/28 05:34:45;;;;;;;10.00;4.83;;;;;;;15.79;100.00;96337.50;6116567;23;20005;-85
2023/05/28 05:37:29;;;;;;;8.73;4.33;;;;;;;15.52;100.00;96333.72;6142985;23;20052;-84
2023/05/28 05:40:05;;;;;;;9.97;5.07;;;;;;;15.74;100.00;96335.41;6122004;23;20373;-85
2023/05/28 05:42:56;;;;;;;9.83;5.30;;;;;;;16.49;100.00;96322.56;6149011;23;20620;-85
2023/05/28 05:45:22;;;;;;;11.07;5.23;;;;;;;16.65;100.00;96327.56;6124209;23;20051;-85
2023/05/28 05:47:49;;;;;;;10.03;4.33;;;;;;;17.05;100.00;96327.81;6124590;23;20009;-85
2023/05/28 05:50:14;;;;;;;12.23;5.00;;;;;;;17.28;99.25;96330.16;6124445;23;20014;-85
2023/05/28 05:52:42;;;;;;;9.27;5.23;;;;;;;17.82;96.00;96328.50;6148966;23;20005;-85
2023/05/28 05:55:08;;;;;;;9.20;4.77;;;;;;;17.88;97.28;96331.19;6127447;23;20011;-85
2023/05/28 05:57:36;;;;;;;9.40;4.53;;;;;;;18.14;95.17;96327.72;6106609;23;20401;-85
2023/05/28 06:00:05;;;;;;;10.70;4.33;;;;;;;17.97;93.99;96330.97;6131171;23;20017;-85
2023/05/28 06:02:39;;;;;;;14.67;5.57;;;;;;;18.31;96.11;96328.13;6132643;23;20391;-85
2023/05/28 06:05:15;;;;;;;9.27;4.23;;;;;;;18.62;92.96;96324.00;6130766;23;20103;-85
2023/05/28 06:07:59;;;;;;;11.97;4.53;;;;;;;18.65;93.83;96320.13;6129947;23;20067;-86
2023/05/28 06:10:51;;;;;;;9.50;4.87;;;;;;;19.24;90.40;96319.13;6132037;23;20017;-85
2023/05/28 06:13:17;;;;;;;10.03;4.33;;;;;;;19.29;89.03;96320.16;6130791;23;20453;-85
2023/05/28 06:15:44;;;;;;;11.13;4.63;;;;;;;20.04;83.62;96319.53;6141779;23;20001;-85
2023/05/28 06:18:11;;;;;;;10.67;5.20;;;;;;;19.79;84.92;96316.84;6109437;23;20073;-86
2023/05/28 06:20:39;;;;;;;9.17;4.20;;;;;;;20.30;84.93;96318.50;6130489;23;20012;-86
2023/05/28 06:23:05;;;;;;;10.60;5.00;;;;;;;20.69;78.10;96319.22;6131483;23;20020;-86
2023/05/28 06:25:30;;;;;;;10.33;5.17;;;;;;;20.63;78.04;96322.78;6131488;23;20013;-86
2023/05/28 06:27:56;;;;;;;9.32;4.57;;;;;;;21.21;72.07;96325.03;6131018;23;20005;-85
2023/05/28 06:30:23;;;;;;;10.77;4.75;;;;;;;20.81;75.97;96327.31;6129051;23;20457;-85
2023/05/28 06:32:48;;;;;;;11.82;4.10;;;;;;;21.54;72.24;96327.31;6126988;23;20005;-85
2023/05/28 06:35:14;;;;;;;12.07;4.90;;;;;;;21.46;72.86;96326.81;6125532;23;20060;-85
2023/05/28 06:37:40;;;;;;;12.25;5.15;;;;;;;22.03;67.46;96319.22;6123272;23;20009;-85
2023/05/28 06:40:07;;;;;;;10.90;4.65;;;;;;;22.63;64.99;96320.94;6120350;23;20661;-86
2023/05/28 06:42:34;;;;;;;10.02;5.00;;;;;;;23.08;62.56;96326.56;6118860;23;20013;-85
2023/05/28 06:45:08;;;;;;;13.48;4.40;;;;;;;23.47;59.51;96321.44;6114823;23;20025;-86
2023/05/28 06:47:34;;;;;;;10.38;5.22;;;;;;;22.79;60.45;96326.44;6116917;23;20084;-85
2023/05/28 06:50:00;;;;;;;7.70;4.03;;;;;;;23.12;61.15;96327.72;6118623;23;20434;-85
2023/05/28 06:52:27;;;;;;;11.05;4.47;;;;;;;23.97;58.51;96324.28;6117579;23;20068;-85
2023/05/28 06:54:52;;;;;;;12.93;5.20;;;;;;;23.60;62.08;96321.16;6118910;23;20400;-85
2023/05/28 06:57:20;;;;;;;7.45;3.95;;;;;;;24.23;59.33;96316.66;6119245;23;20001;-85
2023/05/28 07:00:10;;;;;;;9.00;4.40;;;;;;;24.81;55.21;96318.13;6123230;23;20016;-85
2023/05/28 07:02:56;;;;;;;10.38;4.40;;;;;;;24.99;49.68;96314.34;6096763;23;20010;-84
2023/05/28 07:05:40;;;;;;;10.00;4.60;;;;;;;24.98;50.58;96319.97;6115103;23;20009;-85
2023/05/28 07:08:08;;;;;;;9.80;4.28;;;;;;;26.13;47.38;96323.50;6125453;23;20025;-85
2023/05/28 07:10:33;;;;;;;14.20;4.45;;;;;;;25.56;45.97;96319.38;6126602;23;20349;-85
2023/05/28 07:13:00;;;;;;;9.85;4.32;;;;;;;25.70;45.65;96324.38;6122500;23;20076;-85
2023/05/28 07:15:25;;;;;;;10.05;4.13;;;;;;;25.31;45.80;96327.16;6125083;23;20358;-85
2023/05/28 07:17:51;;;;;;;9.57;4.38;;;;;;;25.42;45.98;96333.47;6124040;23;20017;-84
2023/05/28 07:20:17;;;;;;;9.60;4.10;;;;;;;25.82;44.61;96327.75;6122504;23;20016;-86
2023/05/28 07:22:56;;;;;;;9.70;4.07;;;;;;;25.69;45.64;96328.97;6123149;23;20065;-86
2023/05/28 07:25:22;;;;;;;7.88;4.30;;;;;;;27.20;40.53;96327.00;6123407;23;20001;-85
2023/05/28 07:27:47;;;;;;;11.40;5.07;;;;;;;25.05;42.67;96328.66;6124042;23;20009;-85
2023/05/28 07:30:21;;;;;;;11.30;4.80;;;;;;;24.60;41.82;96337.72;6123925;23;20005;-85
2023/05/28 07:32:47;;;;;;;9.05;3.72;;;;;;;23.27;44.60;96346.81;6123839;23;20012;-85
2023/05/28 07:35:14;;;;;;;10.90;4.20;;;;;;;23.78;46.36;96340.88;6120770;23;20345;-85
2023/05/28 07:37:40;;;;;;;10.95;4.43;;;;;;;24.39;46.55;96331.97;6117579;23;20002;-85
2023/05/28 07:40:07;;;;;;;10.07;4.13;;;;;;;25.82;41.79;96327.75;6119824;23;20744;-85
2023/05/28 07:42:34;;;;;;;11.35;4.20;;;;;;;25.97;41.51;96335.19;6120520;23;20037;-87
2023/05/28 07:45:02;;;;;;;12.60;4.93;;;;;;;25.00;42.83;96342.88;6121409;23;20009;-86
2023/05/28 07:47:29;;;;;;;8.45;4.20;;;;;;;25.51;41.28;96342.75;6095797;23;20624;-87
2023/05/28 07:49:54;;;;;;;10.38;4.57;;;;;;;25.11;42.53;96346.50;6148750;23;20041;-86
2023/05/28 07:52:29;;;;;;;11.07;4.95;;;;;;;25.65;41.19;96341.28;6120506;23;20449;-87
2023/05/28 07:54:58;;;;;;;12.50;4.13;;;;;;;26.61;37.93;96339.81;6124146;23;20005;-86
2023/05/28 07:57:24;;;;;;;11.02;4.38;;;;;;;27.71;36.42;96340.72;6123946;23;20016;-82
2023/05/28 07:59:51;;;;;;;9.85;4.60;;;;;;;27.13;36.65;96341.78;6124557;23;20597;-82
2023/05/28 08:02:17;;;;;;;10.95;4.32;;;;;;;26.68;37.89;96340.41;6124762;23;20469;-83
2023/05/28 08:04:44;;;;;;;11.27;4.13;;;;;;;27.10;36.47;96342.31;6125684;23;20012;-83
2023/05/28 08:07:12;;;;;;;11.05;5.00;;;;;;;28.10;35.05;96337.59;6131895;23;20033;-82
2023/05/28 08:09:38;;;;;;;10.65;4.32;;;;;;;28.03;35.11;96333.50;6128137;23;20005;-83
2023/05/28 08:12:05;;;;;;;13.50;4.57;;;;;;;28.94;34.06;96331.91;6125802;23;20005;-83
2023/05/28 08:14:33;;;;;;;11.07;4.50;;;;;;;30.14;32.80;96324.66;6126036;23;20021;-83
2023/05/28 08:17:05;;;;;;;9.48;4.30;;;;;;;29.46;32.38;96325.28;6124760;23;20005;-83
2023/05/28 08:19:39;;;;;;;8.57;4.28;;;;;;;30.47;31.69;96323.88;6150660;23;20345;-83
2023/05/28 08:22:15;;;;;;;8.80;4.00;;;;;;;30.46;32.63;96329.63;6149225;23;20001;-83
2023/05/28 08:24:42;;;;;;;8.65;3.83;;;;;;;29.05;33.63;96330.84;6125213;23;20149;-83
2023/05/28 08:27:07;;;;;;;9.15;4.55;;;;;;;29.79;32.70;96324.59;6124230;23;20820;-83
2023/05/28 08:29:33;;;;;;;7.93;4.30;;;;;;;30.38;31.43;96324.78;6124330;23;20010;-83
2023/05/28 08:32:03;;;;;;;12.55;4.90;;;;;;;29.82;32.67;96321.34;6124712;23;20020;-83
2023/05/28 08:34:39;;;;;;;9.80;4.13;;;;;;;30.90;31.48;96315.94;6124858;23;20788;-83
2023/05/28 08:37:06;;;;;;;13.07;6.90;;;;;;;31.20;32.80;96313.97;6124973;23;20001;-83
2023/05/28 08:39:46;;;;;;;9.65;4.55;;;;;;;31.08;32.19;96314.38;6126979;23;20041;-83
2023/05/28 08:42:12;;;;;;;10.30;4.68;;;;;;;31.34;31.96;96311.41;6128987;23;20033;-83
2023/05/28 08:44:38;;;;;;;10.25;4.82;;;;;;;31.16;30.57;96313.75;6130102;23;20089;-84
2023/05/28 08:47:04;;;;;;;13.80;7.65;;;;;;;31.13;31.41;96310.81;6156793;23;20009;-83
2023/05/28 08:49:51;;;;;;;10.43;5.35;;;;;;;31.41;30.34;96312.66;6154708;23;20349;-83
2023/05/28 08:52:19;;;;;;;12.35;4.95;;;;;;;31.22;31.20;96309.88;6130552;23;20773;-83
2023/05/28 08:54:47;;;;;;;10.32;4.63;;;;;;;30.78;32.16;96312.78;6154101;23;20013;-83
2023/05/28 08:57:14;;;;;;;9.90;4.45;;;;;;;30.88;32.21;96309.97;6129873;23;20013;-83
2023/05/28 08:59:50;;;;;;;12.45;4.30;;;;;;;30.37;31.23;96304.97;6130142;23;20021;-82
2023/05/28 09:02:16;;;;;;;13.15;4.22;;;;;;;30.10;32.57;96313.56;6130054;23;20030;-82
2023/05/28 09:04:46;;;;;;;9.20;4.63;;;;;;;30.40;31.87;96314.47;6130748;23;20441;-85
2023/05/28 09:07:14;;;;;;;9.50;4.28;;;;;;;30.64;31.11;96309.91;6130397;23;20029;-85
2023/05/28 09:10:58;;;;;;;10.18;4.25;;;;;;;31.70;30.57;96301.69;6092663;23;20109;-85
2023/05/28 09:15:11;;;;;;;9.95;4.55;;;;;;;29.92;31.59;96303.41;5948739;24;20019;-84
2023/05/28 09:25:14;;;;;;;8.23;4.15;;;;;;;29.78;30.68;96293.19;5848418;24;20057;-85
2023/05/28 09:29:14;;;;;;;9.77;4.30;;;;;;;29.64;29.14;96292.16;5864466;24;20185;-85
2023/05/28 09:33:09;;;;;;;9.35;3.88;;;;;;;31.06;30.11;96289.44;5811607;24;20119;-84
2023/05/28 09:37:31;;;;;;;13.98;4.68;;;;;;;30.10;29.68;96289.16;5811171;24;20006;-85
2023/05/28 09:41:33;;;;;;;9.38;4.18;;;;;;;29.92;28.87;96293.34;5708439;25;20043;-85
2023/05/28 09:48:16;;;;;;;9.32;4.03;;;;;;;29.20;30.49;96290.16;5595986;25;20024;-85
2023/05/28 09:50:43;;;;;;;9.88;4.30;;;;;;;29.90;30.81;96283.88;5751297;24;20015;-85
2023/05/28 09:54:28;;;;;;;9.95;4.47;;;;;;;30.17;30.19;96281.50;5783493;24;20389;-85
2023/05/28 10:05:24;;;;;;;10.38;4.78;;;;;;;30.63;28.72;96274.91;5791056;24;20069;-85
2023/05/28 10:07:55;;;;;;;15.18;4.38;;;;;;;31.95;28.31;96277.97;5900566;23;20069;-86
2023/05/28 10:10:23;;;;;;;9.27;4.30;;;;;;;30.58;28.39;96289.31;6031289;23;20016;-85
2023/05/28 10:24:58;;;;;;;9.82;4.65;;;;;;;31.28;28.23;96282.63;6033702;23;20374;-86
2023/05/28 10:58:11;;;;;;;10.52;5.03;;;;;;;31.03;29.45;96279.13;6032439;23;20078;-84
2023/05/28 11:23:39;;;;;;;10.45;5.63;;;;;;;31.73;28.95;96261.44;6014258;23;20090;-82
2023/05/28 11:26:20;;;;;;;13.85;4.78;;;;;;;30.64;30.44;96261.03;6162178;23;20012;-82
2023/05/28 11:28:49;;;;;;;9.48;4.65;;;;;;;30.52;29.56;96258.72;6121170;23;20420;-82
2023/05/28 11:31:14;;;;;;;9.77;4.50;;;;;;;30.19;30.68;96257.66;6120238;23;20061;-82
2023/05/28 11:33:40;;;;;;;9.68;4.18;;;;;;;30.05;31.39;96260.19;6121144;23;20854;-82
2023/05/28 11:36:06;;;;;;;10.60;4.90;;;;;;;29.64;30.46;96254.22;6120586;23;20060;-81
2023/05/28 11:38:32;;;;;;;12.80;5.45;;;;;;;29.79;30.39;96254.13;6120486;23;20001;-81
2023/05/28 11:40:59;;;;;;;9.52;4.65;;;;;;;30.03;30.57;96242.56;6122595;23;20080;-81
2023/05/28 11:43:25;;;;;;;8.20;4.35;;;;;;;30.45;29.59;96250.13;6122918;23;20041;-81
2023/05/28 11:45:56;;;;;;;10.00;4.20;;;;;;;30.01;30.70;96245.56;6122363;23;20009;-80
2023/05/28 11:48:22;;;;;;;8.18;4.53;;;;;;;30.62;28.28;96246.97;6122194;23;20092;-81
2023/05/28 11:50:48;;;;;;;9.50;5.15;;;;;;;29.51;30.70;96254.78;6098863;23;20045;-81
2023/05/28 11:53:13;;;;;;;10.10;4.45;;;;;;;30.38;29.17;96244.19;6098732;23;20007;-81
2023/05/28 11:55:42;;;;;;;10.13;4.95;;;;;;;30.06;30.32;96250.94;6122503;23;20472;-81
2023/05/28 11:58:08;;;;;;;8.20;4.35;;;;;;;29.70;30.00;96246.88;6152252;23;20037;-81
2023/05/28 12:00:35;;;;;;;9.60;4.40;;;;;;;31.62;28.13;96241.72;6128024;23;20005;-81
2023/05/28 12:03:01;;;;;;;9.15;4.90;;;;;;;31.49;27.51;96243.28;6128034;23;20020;-81
2023/05/28 12:05:36;;;;;;;10.73;4.90;;;;;;;31.76;27.68;96234.47;6128200;23;20013;-81
2023/05/28 12:08:02;;;;;;;9.63;4.53;;;;;;;32.27;28.16;96233.69;6128155;23;20346;-81
2023/05/28 12:10:29;;;;;;;9.55;4.60;;;;;;;30.82;29.37;96232.41;6127669;23;20001;-82
2023/05/28 12:12:56;;;;;;;11.63;4.68;;;;;;;30.58;28.98;96229.59;6153276;23;20005;-81
2023/05/28 12:15:24;;;;;;;9.63;4.82;;;;;;;31.95;28.38;96229.03;6127879;23;20021;-82
2023/05/28 12:17:56;;;;;;;9.65;3.67;;;;;;;33.05;27.05;96223.84;6127761;23;20006;-81
2023/05/28 12:20:21;;;;;;;8.07;4.45;;;;;;;32.20;26.67;96224.28;6128107;23;20005;-83
2023/05/28 12:23:03;;;;;;;9.13;4.20;;;;;;;32.61;27.31;96222.47;6128311;23;20020;-82
2023/05/28 12:25:43;;;;;;;9.27;4.55;;;;;;;32.83;25.83;96223.69;6103826;23;20036;-82
2023/05/28 12:28:13;;;;;;;9.13;4.18;;;;;;;32.80;25.56;96221.59;6127773;23;20073;-82
2023/05/28 12:30:43;;;;;;;7.90;4.18;;;;;;;31.81;25.15;96226.22;6128100;23;20085;-82
2023/05/28 12:33:09;;;;;;;8.20;4.43;;;;;;;32.63;26.24;96219.47;6123629;23;19997;-82
2023/05/28 12:35:35;;;;;;;7.43;4.13;;;;;;;32.34;25.82;96217.75;6100299;23;20009;-81
2023/05/28 12:38:02;;;;;;;10.60;4.28;;;;;;;32.75;27.14;96210.78;6124922;23;20458;-81
2023/05/28 12:40:27;;;;;;;11.13;4.45;;;;;;;33.07;27.71;96213.44;6099365;23;20446;-81
2023/05/28 12:42:53;;;;;;;8.73;4.47;;;;;;;32.42;26.31;96216.28;6121938;23;20077;-81
2023/05/28 12:45:19;;;;;;;10.18;5.25;;;;;;;33.52;25.97;96202.69;6122121;23;20024;-82
2023/05/28 12:47:45;;;;;;;11.23;4.90;;;;;;;31.89;26.25;96211.16;6121579;23;20033;-81
2023/05/28 12:50:10;;;;;;;9.02;4.55;;;;;;;31.40;26.28;96206.97;6122470;23;20962;-81
2023/05/28 12:52:36;;;;;;;11.88;4.72;;;;;;;30.91;26.40;96205.41;6122100;23;20006;-81
2023/05/28 12:55:02;;;;;;;10.23;4.88;;;;;;;30.58;26.71;96207.09;6121778;23;20009;-82
2023/05/28 12:57:28;;;;;;;11.30;5.10;;;;;;;32.23;25.32;96200.00;6100190;23;20310;-81
2023/05/28 12:59:53;;;;;;;7.90;4.65;;;;;;;30.68;26.39;96210.50;6123590;23;20081;-81
2023/05/28 13:02:20;;;;;;;9.40;4.88;;;;;;;31.32;26.38;96196.72;6123528;23;20099;-82
2023/05/28 13:04:47;;;;;;;9.82;4.32;;;;;;;31.09;26.73;96204.63;6125354;23;20018;-81